Time;durP1;ratioP1;P1;durP2;ratioP2;P2;SDS_P1;SDS_P2;PMS_P1;PMS_P2;Temp;Humidity;BMP_temperature;BMP_pressure;BME280_temperature;BME280_humidity;BME280_pressure;Samples;Min_cycle;Max_cycle;Signal;HPM_P1;HPM_P2
2023/12/20 05:29:15;;;;;;;53.97;30.95;;;;;;;2.87;95.17;100351.38;5603933;31;149141;-54
2023/12/20 05:32:17;;;;;;;52.17;29.70;;;;;;;2.87;95.17;100351.38;5582984;31;33153;-56
2023/12/20 05:35:19;;;;;;;51.13;31.15;;;;;;;2.40;94.15;100361.09;5600191;31;33594;-54
2023/12/20 05:38:22;;;;;;;50.83;29.37;;;;;;;2.41;94.76;100378.56;5602829;31;33598;-55
2023/12/20 05:41:24;;;;;;;45.55;25.17;;;;;;;2.45;95.59;100387.66;5603145;31;33673;-54
2023/12/20 05:44:27;;;;;;;50.35;25.48;;;;;;;2.37;96.01;100386.16;5602616;31;33462;-54
2023/12/20 05:47:29;;;;;;;45.78;25.37;;;;;;;2.26;96.75;100376.34;5603444;31;34318;-54
2023/12/20 05:50:31;;;;;;;45.95;24.08;;;;;;;2.34;97.10;100368.09;5603342;31;33564;-54
2023/12/20 05:53:33;;;;;;;50.20;24.65;;;;;;;2.33;95.34;100361.19;5594142;31;33562;-54
2023/12/20 05:56:36;;;;;;;64.45;25.92;;;;;;;2.27;95.28;100356.78;5582415;31;33613;-53
2023/12/20 05:59:38;;;;;;;55.22;26.98;;;;;;;2.28;95.61;100351.25;5602021;31;33862;-53
2023/12/20 06:02:41;;;;;;;48.65;25.27;;;;;;;2.30;96.50;100330.69;5596357;31;33568;-53
2023/12/20 06:05:43;;;;;;;51.25;26.77;;;;;;;2.34;95.62;100342.44;5577713;31;33612;-53
2023/12/20 06:08:45;;;;;;;51.00;29.73;;;;;;;2.46;95.01;100336.38;5571496;32;34332;-52
2023/12/20 06:11:48;;;;;;;51.13;25.77;;;;;;;2.48;95.64;100324.50;5579174;32;33647;-52
2023/12/20 06:14:50;;;;;;;49.40;26.05;;;;;;;2.65;94.38;100329.97;5571416;32;33681;-53
2023/12/20 06:17:52;;;;;;;988.00;90.47;;;;;;;2.54;94.13;100323.59;5572692;31;32293;-54
2023/12/20 06:20:55;;;;;;;57.83;27.65;;;;;;;2.33;100.00;100321.50;5572430;31;33472;-53
2023/12/20 06:23:59;;;;;;;52.65;27.30;;;;;;;2.48;100.00;100316.56;5586064;31;34022;-53
2023/12/20 06:27:01;;;;;;;54.22;28.58;;;;;;;2.63;95.23;100325.94;5575200;31;33869;-53
2023/12/20 06:30:04;;;;;;;67.53;28.40;;;;;;;2.46;95.91;100304.63;5579123;32;34825;-53
2023/12/20 06:33:07;;;;;;;75.53;27.60;;;;;;;2.62;94.85;100317.19;5581481;32;34276;-52
2023/12/20 06:36:13;;;;;;;244.10;41.55;;;;;;;2.60;94.98;100319.25;5579226;31;34381;-52
2023/12/20 06:39:15;;;;;;;66.05;30.25;;;;;;;2.74;100.00;100323.28;5567421;31;34210;-53
2023/12/20 06:42:18;;;;;;;69.00;29.33;;;;;;;2.69;99.99;100327.66;5561096;32;34372;-53
2023/12/20 06:45:20;;;;;;;77.43;27.13;;;;;;;2.44;98.25;100333.13;5565467;32;33238;-55
2023/12/20 06:48:23;;;;;;;63.47;28.20;;;;;;;2.48;96.67;100337.75;5566041;31;33648;-53
2023/12/20 06:51:26;;;;;;;49.60;25.00;;;;;;;2.50;95.67;100350.75;5578399;31;34451;-53
2023/12/20 06:54:30;;;;;;;52.22;27.40;;;;;;;2.48;94.82;100373.97;5573065;31;34635;-53
2023/12/20 06:57:32;;;;;;;69.10;26.27;;;;;;;2.52;94.42;100380.47;5564443;32;33644;-53
2023/12/20 07:00:34;;;;;;;42.83;22.35;;;;;;;2.47;95.57;100380.31;5563458;31;34273;-53
2023/12/20 07:03:37;;;;;;;60.72;24.90;;;;;;;2.32;100.00;100375.47;5550105;32;33886;-52
2023/12/20 07:06:39;;;;;;;62.45;24.55;;;;;;;2.39;94.94;100386.75;5564214;31;33753;-53
2023/12/20 07:09:42;;;;;;;57.45;23.95;;;;;;;2.30;93.59;100388.88;5562185;31;33636;-52
2023/12/20 07:12:45;;;;;;;576.63;51.72;;;;;;;2.18;93.08;100381.94;5566596;32;34393;-52
2023/12/20 07:15:48;;;;;;;51.40;23.75;;;;;;;2.22;100.00;100381.28;5563985;31;34342;-52
2023/12/20 07:18:52;;;;;;;1140.68;96.57;;;;;;;2.23;98.06;100367.03;5568881;31;33503;-53
2023/12/20 07:21:54;;;;;;;315.92;46.58;;;;;;;2.76;100.00;100368.87;5564761;32;34123;-52
2023/12/20 07:24:58;;;;;;;53.63;26.00;;;;;;;2.45;100.00;100374.44;5557834;32;33716;-53
2023/12/20 07:28:00;;;;;;;541.97;61.17;;;;;;;2.65;100.00;100361.72;5566017;31;33608;-54
2023/12/20 07:31:03;;;;;;;76.57;27.73;;;;;;;2.42;100.00;100370.41;5559142;31;31929;-52
2023/12/20 07:34:06;;;;;;;94.87;29.23;;;;;;;2.47;98.04;100372.37;5568437;31;34423;-53
2023/12/20 07:37:11;;;;;;;178.00;33.33;;;;;;;2.39;95.50;100372.72;5563495;32;34292;-52
2023/12/20 07:40:13;;;;;;;107.87;30.52;;;;;;;3.19;100.00;100372.22;5559378;32;34267;-52
2023/12/20 07:43:16;;;;;;;50.65;28.30;;;;;;;3.29;100.00;100375.87;5550152;32;33659;-52
2023/12/20 07:46:22;;;;;;;135.18;30.90;;;;;;;3.16;100.00;100376.13;5559281;31;34424;-53
2023/12/20 07:49:25;;;;;;;1929.25;166.80;;;;;;;2.74;100.00;100370.13;5552545;32;33674;-53
2023/12/20 07:52:27;;;;;;;66.25;32.05;;;;;;;3.04;100.00;100372.66;5553237;31;33657;-52
2023/12/20 07:55:30;;;;;;;64.87;28.30;;;;;;;2.68;100.00;100368.38;5563448;32;33550;-52
2023/12/20 07:58:33;;;;;;;50.05;27.73;;;;;;;2.90;95.82;100360.69;5568664;32;34262;-53
2023/12/20 08:01:53;;;;;;;54.70;30.45;;;;;;;2.94;94.50;100357.34;5568220;32;33481;-53
2023/12/20 08:04:55;;;;;;;54.10;30.52;;;;;;;2.74;95.69;100347.09;5575131;31;33807;-53
2023/12/20 08:07:57;;;;;;;49.92;27.48;;;;;;;2.68;96.79;100348.03;5567330;31;34691;-53
2023/12/20 08:11:00;;;;;;;132.57;33.38;;;;;;;2.64;96.58;100336.28;5565722;32;36040;-53
2023/12/20 08:14:02;;;;;;;51.15;30.12;;;;;;;2.80;99.36;100343.53;5561953;31;34361;-52
2023/12/20 08:17:05;;;;;;;54.17;29.87;;;;;;;2.85;96.42;100348.16;5558360;31;33567;-53
2023/12/20 08:20:07;;;;;;;51.85;29.75;;;;;;;2.85;93.99;100347.31;5555807;32;33662;-53
2023/12/20 08:23:10;;;;;;;62.42;31.85;;;;;;;2.89;93.39;100345.84;5560151;32;34229;-53
2023/12/20 08:26:12;;;;;;;56.70;30.80;;;;;;;2.87;93.02;100348.72;5554443;31;33591;-54
2023/12/20 08:29:15;;;;;;;56.65;31.90;;;;;;;2.90;93.64;100356.22;5562169;32;33215;-53
2023/12/20 08:32:17;;;;;;;56.65;31.67;;;;;;;2.88;100.00;100353.00;5568464;32;33476;-52
2023/12/20 08:35:19;;;;;;;55.25;32.70;;;;;;;3.00;94.82;100358.28;5566468;31;33591;-52
2023/12/20 08:38:22;;;;;;;55.38;30.90;;;;;;;3.17;92.10;100348.59;5569782;31;33993;-54
2023/12/20 08:41:24;;;;;;;206.75;38.97;;;;;;;3.02;92.23;100354.38;5565335;31;33938;-53
2023/12/20 08:44:27;;;;;;;567.08;68.75;;;;;;;3.05;100.00;100353.13;5564821;32;33274;-53
2023/12/20 08:47:30;;;;;;;71.78;36.08;;;;;;;3.92;100.00;100349.59;5557441;31;33548;-53
2023/12/20 08:50:32;;;;;;;340.70;51.33;;;;;;;3.47;100.00;100356.38;5557250;32;34215;-52
2023/12/20 08:53:35;;;;;;;61.92;34.72;;;;;;;3.20;100.00;100360.56;5553536;32;33665;-53
2023/12/20 08:56:37;;;;;;;65.25;34.30;;;;;;;3.52;100.00;100353.84;5576748;31;33379;-52
2023/12/20 08:59:40;;;;;;;68.35;34.67;;;;;;;3.25;100.00;100356.19;5568874;31;33627;-52
2023/12/20 09:02:42;;;;;;;60.78;34.13;;;;;;;3.23;97.94;100360.91;5559440;31;34329;-53
2023/12/20 09:05:45;;;;;;;62.38;33.83;;;;;;;3.07;96.13;100356.31;5568652;32;33507;-53
2023/12/20 09:08:47;;;;;;;60.95;34.88;;;;;;;2.98;94.67;100347.09;5565324;31;33624;-53
2023/12/20 09:11:51;;;;;;;58.87;32.88;;;;;;;3.05;98.53;100363.72;5566911;31;34356;-53
2023/12/20 09:14:53;;;;;;;61.22;35.88;;;;;;;3.06;94.13;100360.00;5567127;31;34336;-53
2023/12/20 09:17:56;;;;;;;58.13;33.95;;;;;;;2.90;94.17;100350.91;5566372;32;33624;-52
2023/12/20 09:20:58;;;;;;;55.58;32.47;;;;;;;2.95;93.77;100351.03;5548419;32;33983;-53
2023/12/20 09:24:01;;;;;;;60.42;32.92;;;;;;;2.77;95.37;100356.44;5563637;31;33803;-52
2023/12/20 09:27:03;;;;;;;57.35;32.75;;;;;;;2.82;93.84;100352.06;5564120;31;33616;-55
2023/12/20 09:30:06;;;;;;;51.72;30.02;;;;;;;3.03;92.79;100350.69;5562148;31;33653;-53
2023/12/20 09:33:09;;;;;;;55.65;32.10;;;;;;;2.98;91.19;100341.81;5571848;31;33812;-53
2023/12/20 09:36:11;;;;;;;51.30;31.10;;;;;;;3.00;95.74;100334.44;5564497;31;34268;-52
2023/12/20 09:39:14;;;;;;;56.20;32.70;;;;;;;3.22;93.24;100321.44;5566549;32;34278;-53
2023/12/20 09:42:25;;;;;;;52.45;31.08;;;;;;;3.23;98.48;100315.88;5561045;31;34191;-52
2023/12/20 09:45:27;;;;;;;53.05;32.80;;;;;;;3.35;100.00;100312.41;5555819;32;34290;-53
2023/12/20 09:48:31;;;;;;;58.75;33.33;;;;;;;3.17;92.59;100316.00;5557669;32;34729;-52
2023/12/20 09:51:34;;;;;;;49.83;30.92;;;;;;;3.22;90.74;100301.03;5561845;31;33981;-53
2023/12/20 09:54:36;;;;;;;56.13;33.88;;;;;;;3.20;100.00;100303.09;5551479;31;33132;-52
2023/12/20 09:57:39;;;;;;;55.40;34.10;;;;;;;3.21;93.64;100299.44;5558985;32;33705;-54
2023/12/20 10:00:42;;;;;;;59.65;35.42;;;;;;;3.35;98.70;100297.31;5556588;31;33556;-53
2023/12/20 10:03:45;;;;;;;52.88;33.95;;;;;;;3.33;95.27;100280.84;5557698;32;33541;-52
2023/12/20 10:06:47;;;;;;;58.63;35.40;;;;;;;3.37;91.80;100281.19;5563940;32;34242;-53
2023/12/20 10:09:54;;;;;;;51.67;32.25;;;;;;;3.39;91.04;100282.56;5563338;31;33599;-52
2023/12/20 10:13:08;;;;;;;61.22;35.75;;;;;;;3.38;90.96;100277.47;5568590;31;33670;-53
2023/12/20 10:16:11;;;;;;;55.97;33.80;;;;;;;3.35;91.01;100283.28;5566725;31;33639;-53
2023/12/20 10:19:17;;;;;;;58.97;36.35;;;;;;;3.45;90.47;100270.22;5573425;31;33716;-53
2023/12/20 10:22:19;;;;;;;63.42;37.08;;;;;;;3.44;91.01;100260.66;5576643;31;33571;-53
2023/12/20 10:25:22;;;;;;;143.48;43.45;;;;;;;3.67;90.21;100271.16;5568715;32;33160;-52
2023/12/20 10:28:27;;;;;;;71.80;40.20;;;;;;;4.14;100.00;100246.22;5567073;32;33546;-53
2023/12/20 10:31:32;;;;;;;57.50;36.20;;;;;;;4.24;100.00;100238.47;5568405;32;33651;-53
2023/12/20 10:34:35;;;;;;;64.93;37.92;;;;;;;4.06;100.00;100231.53;5583326;31;33775;-53
2023/12/20 10:37:37;;;;;;;56.22;36.30;;;;;;;3.92;94.85;100235.53;5557000;32;34150;-55
2023/12/20 10:40:40;;;;;;;60.38;37.38;;;;;;;3.95;92.79;100224.47;5572877;31;31983;-53
2023/12/20 10:43:43;;;;;;;58.95;37.58;;;;;;;4.04;93.84;100224.84;5562874;32;34385;-52
2023/12/20 10:46:51;;;;;;;61.35;37.58;;;;;;;4.02;92.38;100217.16;5566412;32;33617;-53
2023/12/20 10:49:54;;;;;;;64.05;37.53;;;;;;;4.35;100.00;100223.50;5567570;31;33498;-53
2023/12/20 10:52:58;;;;;;;61.25;37.90;;;;;;;4.61;100.00;100214.06;5581767;31;34311;-53
2023/12/20 10:56:02;;;;;;;62.88;38.55;;;;;;;4.36;91.93;100209.97;5567682;31;33346;-53
2023/12/20 10:59:10;;;;;;;62.10;40.22;;;;;;;4.40;95.48;100207.63;5557825;31;32344;-53
2023/12/20 11:02:12;;;;;;;59.80;38.00;;;;;;;4.44;91.92;100206.13;5554008;32;33707;-52
2023/12/20 11:05:42;;;;;;;60.65;39.13;;;;;;;4.51;93.57;100205.94;5549907;32;34447;-54
2023/12/20 11:08:51;;;;;;;66.25;41.60;;;;;;;4.85;100.00;100206.66;5564767;31;33696;-53
2023/12/20 11:12:09;;;;;;;65.25;41.33;;;;;;;4.79;97.40;100189.06;5563939;32;34301;-53
2023/12/20 11:15:12;;;;;;;66.07;41.42;;;;;;;5.35;100.00;100185.19;5567126;32;33456;-53
2023/12/20 11:18:15;;;;;;;73.68;45.15;;;;;;;5.24;95.04;100175.50;5560618;32;34355;-53
2023/12/20 11:21:17;;;;;;;78.15;44.17;;;;;;;5.00;91.33;100161.69;5568290;32;33731;-53
2023/12/20 11:24:23;;;;;;;82.07;48.03;;;;;;;5.67;100.00;100159.72;5565710;32;33674;-53
2023/12/20 11:27:25;;;;;;;77.22;44.95;;;;;;;5.83;100.00;100151.59;5564996;32;34516;-53
2023/12/20 11:30:40;;;;;;;76.53;47.45;;;;;;;6.07;100.00;100138.78;5561377;32;34354;-53
2023/12/20 11:33:44;;;;;;;72.25;45.70;;;;;;;5.97;100.00;100120.06;5553457;32;33834;-53
2023/12/20 11:36:46;;;;;;;76.85;45.63;;;;;;;6.03;100.00;100108.41;5556323;32;33580;-55
2023/12/20 11:39:58;;;;;;;72.07;43.87;;;;;;;6.09;100.00;100115.37;5571210;31;35221;-53
2023/12/20 11:43:01;;;;;;;68.00;43.05;;;;;;;6.20;100.00;100112.78;5565741;32;34916;-53
2023/12/20 11:46:08;;;;;;;75.95;45.30;;;;;;;5.80;94.39;100119.41;5566870;32;34344;-53
2023/12/20 11:49:11;;;;;;;71.37;43.67;;;;;;;5.74;89.74;100120.41;5567096;31;33753;-53
2023/12/20 11:52:13;;;;;;;79.85;48.50;;;;;;;5.90;100.00;100124.78;5583841;31;34331;-55
2023/12/20 11:55:16;;;;;;;81.50;49.05;;;;;;;6.27;100.00;100118.66;5558196;32;34351;-54
2023/12/20 11:58:18;;;;;;;83.15;49.22;;;;;;;6.30;100.00;100121.59;5566455;31;33639;-54
2023/12/20 12:01:21;;;;;;;86.87;51.10;;;;;;;6.44;100.00;100107.84;5549664;32;33281;-53
2023/12/20 12:04:24;;;;;;;81.28;52.70;;;;;;;6.79;100.00;100109.84;5558040;31;33680;-54
2023/12/20 12:07:26;;;;;;;82.62;52.03;;;;;;;7.26;100.00;100108.91;5572943;31;34251;-53
2023/12/20 12:10:29;;;;;;;82.62;51.92;;;;;;;7.38;100.00;100111.28;5564073;32;34263;-53
2023/12/20 12:13:32;;;;;;;51.78;30.65;;;;;;;7.07;93.62;100096.06;5553332;32;33664;-53
2023/12/20 12:16:35;;;;;;;42.80;23.77;;;;;;;6.86;92.26;100091.75;5582996;31;33948;-53
2023/12/20 12:19:37;;;;;;;21.85;11.63;;;;;;;6.92;95.72;100093.38;5563924;32;33453;-53
2023/12/20 12:22:41;;;;;;;104.12;26.87;;;;;;;7.52;94.67;100083.06;5567879;31;33610;-53
2023/12/20 12:25:44;;;;;;;33.80;21.20;;;;;;;7.85;95.61;100089.72;5563765;31;33304;-54
2023/12/20 12:28:47;;;;;;;25.73;15.93;;;;;;;7.95;100.00;100104.91;5568723;31;33778;-56
2023/12/20 12:31:50;;;;;;;36.42;22.17;;;;;;;7.93;90.86;100099.81;5556331;31;33338;-52
2023/12/20 12:34:53;;;;;;;19.67;12.25;;;;;;;8.43;100.00;100108.81;5553621;32;33821;-53
2023/12/20 12:37:58;;;;;;;15.55;10.80;;;;;;;8.15;88.65;100120.09;5560242;32;33510;-53
2023/12/20 12:41:01;;;;;;;14.13;8.20;;;;;;;8.16;90.11;100111.00;5567895;32;33719;-53
2023/12/20 12:44:03;;;;;;;9.00;6.53;;;;;;;8.04;84.28;100134.50;5553977;32;33853;-53
2023/12/20 12:47:18;;;;;;;8.88;6.55;;;;;;;7.94;86.75;100109.41;5552191;32;33589;-53
2023/12/20 12:50:21;;;;;;;11.15;6.60;;;;;;;7.98;84.79;100112.38;5563513;31;34209;-53
2023/12/20 12:53:24;;;;;;;13.02;7.72;;;;;;;7.96;84.36;100123.31;5567039;31;33334;-53
2023/12/20 12:56:26;;;;;;;11.32;6.87;;;;;;;8.04;95.08;100108.59;5556945;31;33640;-53
2023/12/20 12:59:29;;;;;;;9.23;6.65;;;;;;;7.93;83.52;100118.50;5551576;32;34462;-53
2023/12/20 13:02:31;;;;;;;11.15;7.60;;;;;;;7.70;83.78;100111.06;5548844;32;33998;-53
2023/12/20 13:05:33;;;;;;;11.32;6.78;;;;;;;7.88;88.65;100109.69;5548012;32;34368;-54
2023/12/20 13:08:41;;;;;;;10.85;6.30;;;;;;;8.13;88.43;100103.53;5547897;32;34357;-54
2023/12/20 13:11:44;;;;;;;11.30;7.55;;;;;;;8.29;85.56;100112.31;5547635;32;33484;-53
2023/12/20 13:14:46;;;;;;;9.05;6.95;;;;;;;8.32;85.23;100119.78;5563193;32;34477;-53
2023/12/20 13:17:49;;;;;;;10.45;6.75;;;;;;;8.30;88.73;100104.00;5554949;32;34097;-53
2023/12/20 13:20:51;;;;;;;11.68;7.30;;;;;;;8.33;88.98;100102.69;5557756;32;34301;-53
2023/12/20 13:23:54;;;;;;;11.30;7.95;;;;;;;8.62;100.00;100101.00;5568302;32;33790;-52
2023/12/20 13:26:57;;;;;;;12.02;9.55;;;;;;;8.76;100.00;100085.19;5565200;32;33364;-53
2023/12/20 13:29:59;;;;;;;11.32;9.52;;;;;;;9.09;100.00;100082.84;5560149;32;34320;-52
2023/12/20 13:33:01;;;;;;;11.43;8.65;;;;;;;8.85;92.05;100088.88;5557803;32;33331;-53
2023/12/20 13:36:05;;;;;;;15.05;11.35;;;;;;;8.84;85.60;100084.63;5564766;32;33837;-52
2023/12/20 13:39:10;;;;;;;13.90;10.52;;;;;;;9.19;100.00;100082.78;5567714;32;33274;-53
2023/12/20 13:42:12;;;;;;;14.13;10.85;;;;;;;9.16;100.00;100080.66;5553812;32;33573;-53
2023/12/20 13:45:15;;;;;;;15.45;11.07;;;;;;;9.09;100.00;100089.00;5560599;32;33744;-53
2023/12/20 13:48:17;;;;;;;12.93;9.55;;;;;;;9.12;100.00;100087.66;5566311;32;33327;-53
2023/12/20 13:51:20;;;;;;;13.62;9.93;;;;;;;8.88;81.95;100095.56;5566218;32;34353;-53
2023/12/20 13:54:23;;;;;;;12.60;9.75;;;;;;;8.78;91.95;100091.06;5569546;32;34417;-52
2023/12/20 13:57:25;;;;;;;14.35;11.02;;;;;;;8.76;84.12;100087.84;5567790;32;34360;-53
2023/12/20 14:00:48;;;;;;;15.80;11.93;;;;;;;8.73;100.00;100090.28;5563040;32;33551;-54
2023/12/20 14:03:50;;;;;;;16.30;11.43;;;;;;;8.74;100.00;100090.00;5566193;32;33635;-53
2023/12/20 14:06:53;;;;;;;12.75;9.38;;;;;;;9.02;100.00;100093.06;5562528;32;33877;-53
2023/12/20 14:09:55;;;;;;;14.85;11.10;;;;;;;8.91;86.03;100093.12;5552452;32;34331;-53
2023/12/20 14:12:57;;;;;;;15.02;11.25;;;;;;;8.74;100.00;100100.69;5564836;32;33570;-54
2023/12/20 14:16:01;;;;;;;12.23;8.43;;;;;;;8.97;100.00;100109.13;5555117;32;34435;-53
2023/12/20 14:19:07;;;;;;;13.18;9.07;;;;;;;9.04;98.03;100114.97;5558907;32;33687;-52
2023/12/20 14:22:09;;;;;;;16.67;9.73;;;;;;;8.74;95.05;100113.25;5550786;32;34296;-52
2023/12/20 14:25:14;;;;;;;14.45;10.75;;;;;;;8.58;82.33;100102.63;5563657;32;33648;-53
2023/12/20 14:28:17;;;;;;;15.23;10.98;;;;;;;8.36;86.39;100104.81;5566414;32;33774;-53
2023/12/20 14:31:19;;;;;;;16.98;10.90;;;;;;;8.79;100.00;100097.19;5550231;32;34343;-53
2023/12/20 14:34:23;;;;;;;15.25;10.73;;;;;;;8.44;83.44;100113.09;5560039;32;34315;-53
2023/12/20 14:37:26;;;;;;;15.68;10.90;;;;;;;8.22;98.17;100115.25;5569445;32;33624;-53
2023/12/20 14:40:29;;;;;;;20.02;12.65;;;;;;;8.32;86.59;100111.78;5570291;32;34416;-53
2023/12/20 14:43:31;;;;;;;17.67;11.38;;;;;;;8.30;98.06;100111.22;5570183;32;34257;-53
2023/12/20 14:46:34;;;;;;;14.20;10.18;;;;;;;8.40;100.00;100120.03;5570030;32;33734;-52
2023/12/20 14:49:37;;;;;;;21.77;10.98;;;;;;;8.13;83.31;100123.03;5569790;32;33910;-53
2023/12/20 14:52:40;;;;;;;16.77;11.55;;;;;;;8.14;100.00;100116.59;5569391;32;33778;-53
2023/12/20 14:55:42;;;;;;;16.70;11.43;;;;;;;8.54;100.00;100114.91;5568224;32;34380;-53
2023/12/20 14:58:45;;;;;;;16.67;11.02;;;;;;;8.34;84.37;100130.97;5568827;32;34409;-52
2023/12/20 15:01:47;;;;;;;19.20;14.00;;;;;;;8.23;89.25;100131.00;5568941;32;34020;-52
2023/12/20 15:04:50;;;;;;;16.77;12.32;;;;;;;8.53;100.00;100142.72;5569891;32;33595;-53
2023/12/20 15:07:53;;;;;;;17.75;12.25;;;;;;;8.30;85.44;100148.63;5569634;32;33727;-53
2023/12/20 15:10:55;;;;;;;15.35;11.63;;;;;;;8.41;100.00;100151.03;5569082;32;33548;-53
2023/12/20 15:14:00;;;;;;;15.90;11.12;;;;;;;8.25;100.00;100152.13;5569955;32;33632;-52
2023/12/20 15:17:02;;;;;;;19.85;10.52;;;;;;;7.99;95.89;100140.66;5569483;32;33581;-53
2023/12/20 15:20:05;;;;;;;11.57;8.63;;;;;;;7.89;85.68;100152.16;5569582;32;33608;-53
2023/12/20 15:23:08;;;;;;;15.45;9.88;;;;;;;8.02;85.90;100152.69;5569646;32;33547;-53
2023/12/20 15:26:10;;;;;;;11.75;8.32;;;;;;;7.91;86.57;100166.03;5569944;32;34316;-53
2023/12/20 15:29:14;;;;;;;10.15;6.62;;;;;;;7.95;97.78;100167.09;5569047;32;33909;-52
2023/12/20 15:32:18;;;;;;;15.13;7.20;;;;;;;7.85;83.04;100179.66;5569577;32;34495;-53
2023/12/20 15:35:21;;;;;;;8.60;5.72;;;;;;;8.00;100.00;100180.44;5569668;32;33372;-53
2023/12/20 15:38:23;;;;;;;9.73;6.62;;;;;;;8.28;88.06;100169.44;5568229;32;34317;-54
2023/12/20 15:41:26;;;;;;;9.85;6.75;;;;;;;8.06;86.59;100180.44;5567605;32;33807;-53
2023/12/20 15:44:28;;;;;;;12.23;6.43;;;;;;;7.98;81.18;100185.25;5569266;32;34341;-53
2023/12/20 15:47:30;;;;;;;9.50;6.57;;;;;;;7.95;83.00;100180.44;5568849;32;33614;-53
2023/12/20 15:50:32;;;;;;;14.10;6.22;;;;;;;7.95;81.84;100185.00;5569071;32;33643;-53
2023/12/20 15:53:36;;;;;;;16.85;7.53;;;;;;;7.91;81.20;100187.38;5569074;32;34463;-54
2023/12/20 15:56:41;;;;;;;10.57;7.62;;;;;;;8.03;100.00;100181.75;5568964;32;34298;-53
2023/12/20 15:59:43;;;;;;;9.63;7.62;;;;;;;8.00;86.72;100185.75;5569337;32;34135;-52
2023/12/20 16:02:45;;;;;;;10.18;7.60;;;;;;;8.00;80.28;100193.78;5568345;32;33947;-53
2023/12/20 16:05:48;;;;;;;12.88;7.78;;;;;;;8.14;87.92;100199.38;5569056;32;34055;-52
2023/12/20 16:08:50;;;;;;;10.30;7.43;;;;;;;8.31;84.56;100211.62;5568800;32;33626;-54
2023/12/20 16:11:52;;;;;;;11.48;8.05;;;;;;;8.06;80.66;100204.47;5567829;32;33732;-52
2023/12/20 16:14:55;;;;;;;10.30;7.50;;;;;;;7.82;83.04;100204.19;5569186;32;34401;-53
2023/12/20 16:17:58;;;;;;;9.77;7.50;;;;;;;7.98;88.56;100209.28;5568855;32;33674;-52
2023/12/20 16:21:01;;;;;;;10.05;7.65;;;;;;;7.83;83.83;100201.25;5568547;32;33692;-53
2023/12/20 16:24:04;;;;;;;9.63;7.12;;;;;;;7.77;87.36;100205.78;5568650;32;34359;-52
2023/12/20 16:27:06;;;;;;;9.73;7.32;;;;;;;7.75;88.98;100207.13;5568541;32;33917;-52
2023/12/20 16:30:09;;;;;;;9.73;7.32;;;;;;;7.52;89.57;100217.22;5568599;32;33691;-54
2023/12/20 16:33:11;;;;;;;11.00;7.15;;;;;;;7.70;88.14;100215.09;5568977;32;33891;-52
2023/12/20 16:36:14;;;;;;;9.65;7.18;;;;;;;7.79;85.16;100213.53;5569372;32;33708;-52
2023/12/20 16:39:16;;;;;;;8.63;6.60;;;;;;;7.78;97.78;100206.56;5569126;32;33777;-52
2023/12/20 16:42:20;;;;;;;9.77;7.00;;;;;;;8.00;90.39;100191.09;5569380;32;34240;-52
